Terminal Aerodrome Forecast
Issued by NWS Louisville, KY

Home | Current Version | Previous Version | Text Only | Print | Product List | Glossary On
Versions: 1 2 3 4 5 6 7 8 9 10 11 12 13 14 15 16 17 18 19 20 21 22 23 24 25
000
FTUS43 KLMK 311600 AAC
TAFSDF
TAF AMD
KSDF 311623Z 3116/0118 19008KT P6SM VCSH BKN015 BKN020 OVC060
     FM311800 22010KT P6SM VCSH SCT025 BKN035=

USA.gov is the U.S. government's official web portal to all federal, state and local government web resources and services.